Main page
METAR-TAF:

METAR-TAF

Airports :

Kapuskasing Airport

Kapuskasing, Ontario, Canada

latitude: 49-25N, longitude: 082-28W, elevation: 227 m

Current weather observation

The report was made 1 hour and 5 minutes ago, at 12:00 UTC
Wind 3 kt from the West/Southwest
Temperature 15°C
Humidity 72%
Pressure 1029 hPa
Visibility: 24.1 km
Few clouds at a height of 26000 ft

METAR: CYYU 201200Z 24003KT 15SM FEW260 15/10 A3038 RMK CI1 SLP291

Time: 09:05 (13:05 UTC)

Forecast

The report was made 5 hours and 25 minutes ago, at 07:40 UTC
Forecast valid from 20 at 08 UTC to 20 at 20 UTC
Wind 5 kt from the North/Northwest
Visibility: 10 km
Scattered clouds at a height of 4000 ft
Temporary
from 20 at 08 UTC to 20 at 12 UTC
Broken clouds at a height of 4000 ft
Becoming
from 20 at 16 UTC to 20 at 18 UTC
Wind 3 kt from variable directions

TAF: CYYU 200740Z 2008/2020 33005KT P6SM SCT040 TEMPO 2008/2012 BKN040 BECMG 2016/2018 VRB03KT RMK NXT FCST BY 201400Z

Weather observations and forecasts of more than 4000 airports (METAR and TAF reports).

The available stations are represented by yellow and red dots on the map.

Hover mouse over dot to see the name of the station.

Then click to see weather observations and forecasts.

To change the map : click on the green buttons with a black cross to zoom in, on the green button with a dash to zoom out, or on the green arrows for adjacent maps.


METAR-TAF: